createdAt,value
2022-09-15T00:01:11.699Z,159655.66
2022-09-15T00:03:48.390Z,159647.66
2022-09-15T00:06:16.146Z,159637.00
2022-09-15T00:08:44.594Z,159632.97
2022-09-15T00:11:15.829Z,159620.97
2022-09-15T00:13:44.018Z,159610.25
2022-09-15T00:16:15.254Z,159615.63
2022-09-15T00:18:44.379Z,159610.25
2022-09-15T00:21:17.838Z,159606.25
2022-09-15T00:23:46.330Z,159611.59
2022-09-15T00:26:15.974Z,159611.59
2022-09-15T00:28:44.516Z,159606.25
2022-09-15T00:31:18.553Z,159604.91
2022-09-15T00:33:52.724Z,159602.25
2022-09-15T00:36:20.726Z,159602.25
2022-09-15T00:38:48.573Z,159603.59
2022-09-15T00:41:21.639Z,159604.91
2022-09-15T00:43:58.374Z,159614.28
2022-09-15T00:46:41.885Z,159618.28
2022-09-15T00:49:13.719Z,159619.59
2022-09-15T00:52:03.263Z,159612.91
2022-09-15T00:54:36.657Z,159611.59
2022-09-15T00:57:05.294Z,159616.94
2022-09-15T00:59:40.713Z,159615.63
2022-09-15T01:02:22.146Z,159619.59
2022-09-15T01:04:56.018Z,159626.28
2022-09-15T01:07:32.741Z,159622.31
2022-09-15T01:10:05.874Z,159628.97
2022-09-15T01:12:33.460Z,159631.63
2022-09-15T01:15:02.046Z,159634.28
2022-09-15T01:18:04.077Z,159638.31
2022-09-15T01:21:08.772Z,159649.03
2022-09-15T01:24:14.321Z,159657.03
2022-09-15T01:26:46.799Z,159663.72
2022-09-15T01:29:39.338Z,159667.69
2022-09-15T01:32:34.619Z,159671.72
2022-09-15T01:35:22.514Z,159673.06
2022-09-15T01:37:56.048Z,159683.72
2022-09-15T01:40:25.222Z,159670.41
2022-09-15T01:42:56.094Z,159669.03
2022-09-15T01:45:30.414Z,159682.38
2022-09-15T01:47:59.170Z,159669.03
2022-09-15T01:50:31.719Z,159679.72
2022-09-15T01:53:01.949Z,159677.06
2022-09-15T01:55:49.400Z,159695.78
2022-09-15T01:58:17.012Z,159702.47
2022-09-15T02:00:50.195Z,159707.84
2022-09-15T02:03:22.818Z,159715.84
2022-09-15T02:06:03.055Z,159715.84
2022-09-15T02:08:36.822Z,159726.56
2022-09-15T02:11:18.063Z,159723.84
2022-09-15T02:14:00.252Z,159721.19
2022-09-15T02:16:32.527Z,159723.84
2022-09-15T02:19:11.711Z,159721.19
2022-09-15T02:21:55.073Z,159734.56
2022-09-15T02:24:32.741Z,159750.59
2022-09-15T02:27:01.318Z,159738.53
2022-09-15T02:29:30.578Z,159747.94
2022-09-15T02:32:02.662Z,159753.22
2022-09-15T02:34:36.560Z,159755.94
2022-09-15T02:37:05.078Z,159758.59
2022-09-15T02:39:36.231Z,159763.94
2022-09-15T02:42:04.259Z,159776.00
2022-09-15T02:44:32.258Z,159767.94
2022-09-15T02:47:00.729Z,159767.94
2022-09-15T02:49:28.543Z,159771.94
2022-09-15T02:51:55.889Z,159778.63
2022-09-15T02:54:23.208Z,159787.97
2022-09-15T02:56:50.891Z,159785.31
2022-09-15T02:59:18.154Z,159793.34
2022-09-15T03:01:45.557Z,159786.66
2022-09-15T03:04:13.233Z,159790.69
2022-09-15T03:06:40.558Z,159802.66
2022-09-15T03:09:08.473Z,159798.69
2022-09-15T03:11:37.098Z,159790.69
2022-09-15T03:14:06.118Z,159794.66
2022-09-15T03:16:35.103Z,159805.38
2022-09-15T03:19:03.463Z,159802.66
2022-09-15T03:21:31.407Z,159809.34
2022-09-15T03:23:59.270Z,159812.06
2022-09-15T03:26:26.931Z,159834.75
2022-09-15T03:28:54.322Z,159841.44
2022-09-15T03:31:21.654Z,159860.13
2022-09-15T03:33:49.804Z,159861.50
2022-09-15T03:36:17.334Z,159865.47
2022-09-15T03:38:44.762Z,159870.84
2022-09-15T03:41:13.102Z,159888.19
2022-09-15T03:43:41.613Z,159884.19
2022-09-15T03:46:11.769Z,159908.25
2022-09-15T03:48:40.665Z,159910.94
2022-09-15T03:51:08.979Z,159902.94
2022-09-15T03:53:39.152Z,159916.25
2022-09-15T03:56:13.857Z,159924.31
2022-09-15T03:58:41.264Z,159933.66
2022-09-15T04:01:09.432Z,159921.63
2022-09-15T04:03:42.730Z,159912.28
2022-09-15T04:06:13.351Z,159912.28
2022-09-15T04:08:40.788Z,159905.59
2022-09-15T04:11:09.731Z,159914.94
2022-09-15T04:13:39.200Z,159898.91
2022-09-15T04:16:09.444Z,159913.59
2022-09-15T04:18:37.352Z,159916.25
2022-09-15T04:21:11.712Z,159908.25
2022-09-15T04:23:40.693Z,159913.59
2022-09-15T04:26:31.617Z,159908.25
2022-09-15T04:29:03.935Z,159886.84
2022-09-15T04:31:33.655Z,159878.84
2022-09-15T04:34:01.504Z,159884.19
2022-09-15T04:36:29.990Z,159877.53
2022-09-15T04:38:58.464Z,159857.47
2022-09-15T04:41:26.533Z,159881.56
2022-09-15T04:43:54.372Z,159876.19
2022-09-15T04:46:22.490Z,159865.47
2022-09-15T04:48:49.932Z,159861.50
2022-09-15T04:51:20.482Z,159873.50
2022-09-15T04:53:48.507Z,159873.50
2022-09-15T04:56:18.082Z,159886.84
2022-09-15T04:58:47.603Z,159889.56
2022-09-15T05:01:21.392Z,159905.59
2022-09-15T05:03:50.020Z,159913.59
2022-09-15T05:06:21.565Z,159925.66
2022-09-15T05:08:50.577Z,159929.63
2022-09-15T05:11:18.478Z,159924.31
2022-09-15T05:13:46.820Z,159937.63
2022-09-15T05:16:17.570Z,159929.63
2022-09-15T05:18:46.589Z,159956.38
2022-09-15T05:21:17.011Z,159959.03
2022-09-15T05:23:44.705Z,159975.09
2022-09-15T05:26:14.164Z,159968.41
2022-09-15T05:28:42.431Z,159975.09
2022-09-15T05:31:11.828Z,159987.09
2022-09-15T05:33:39.822Z,160007.16
2022-09-15T05:36:07.635Z,160015.16
2022-09-15T05:38:35.266Z,160035.25
2022-09-15T05:41:13.798Z,160048.63
2022-09-15T05:43:41.475Z,160062.03
2022-09-15T05:46:10.455Z,160062.03
2022-09-15T05:48:38.003Z,160076.75
2022-09-15T05:51:06.013Z,160084.75
2022-09-15T05:53:35.101Z,160082.09
2022-09-15T05:56:13.943Z,160079.44
2022-09-15T05:58:43.460Z,160102.16
2022-09-15T06:01:25.725Z,160108.84
2022-09-15T06:03:54.795Z,160126.22
2022-09-15T06:06:23.297Z,160126.22
2022-09-15T06:08:58.010Z,160146.28
2022-09-15T06:11:29.306Z,160140.91
2022-09-15T06:14:03.388Z,160169.00
2022-09-15T06:16:34.032Z,160173.03
2022-09-15T06:19:02.610Z,160177.03
2022-09-15T06:21:31.487Z,160189.06
2022-09-15T06:24:01.848Z,160187.75
2022-09-15T06:26:30.078Z,160198.41
2022-09-15T06:29:02.770Z,160223.84
2022-09-15T06:31:33.035Z,160238.56
2022-09-15T06:34:10.226Z,160257.31
2022-09-15T06:36:39.229Z,160259.97
2022-09-15T06:39:06.925Z,160256.00
2022-09-15T06:41:58.359Z,160276.00
2022-09-15T06:44:23.403Z,160294.75
2022-09-15T06:46:50.962Z,160298.78
2022-09-15T06:49:19.255Z,160300.13
2022-09-15T06:51:46.875Z,160328.22
2022-09-15T06:54:16.228Z,160373.69
2022-09-15T06:56:45.097Z,160407.19
2022-09-15T06:59:13.908Z,160396.47
2022-09-15T07:01:54.561Z,160411.25
2022-09-15T07:04:23.003Z,160389.78
2022-09-15T07:06:53.164Z,160437.97
2022-09-15T07:09:20.709Z,160475.47
2022-09-15T07:11:48.336Z,160522.28
2022-09-15T07:14:15.681Z,160559.81
2022-09-15T07:16:43.185Z,160612.00
2022-09-15T07:19:11.037Z,160662.88
2022-09-15T07:21:38.393Z,160699.06
2022-09-15T07:24:07.614Z,160780.78
2022-09-15T07:26:35.500Z,160869.19
2022-09-15T07:29:06.903Z,160890.63
2022-09-15T07:31:37.102Z,160926.78
2022-09-15T07:34:05.691Z,160950.94
2022-09-15T07:36:33.299Z,160997.91
2022-09-15T07:39:00.871Z,161043.44
2022-09-15T07:41:30.007Z,161115.81
2022-09-15T07:43:59.870Z,161148.00
2022-09-15T07:46:31.314Z,161240.56
2022-09-15T07:48:59.173Z,161256.66
2022-09-15T07:51:27.024Z,161165.41
2022-09-15T07:53:54.972Z,161189.56
2022-09-15T07:56:23.983Z,161275.44
2022-09-15T07:58:51.439Z,161396.13
2022-09-15T08:01:19.978Z,161488.75
2022-09-15T08:03:49.840Z,161526.31
2022-09-15T08:06:20.107Z,161504.84
2022-09-15T08:08:47.569Z,161508.88
2022-09-15T08:11:19.439Z,161486.00
2022-09-15T08:13:52.567Z,161498.13
2022-09-15T08:16:23.155Z,161515.59
2022-09-15T08:18:52.917Z,161530.34
2022-09-15T08:21:21.324Z,161504.84
2022-09-15T08:23:58.551Z,161542.38
2022-09-15T08:26:27.588Z,161605.47
2022-09-15T08:28:55.002Z,161641.69
2022-09-15T08:31:24.259Z,161669.88
2022-09-15T08:33:54.343Z,161687.34
2022-09-15T08:36:22.206Z,161729.03
2022-09-15T08:38:49.675Z,161730.34
2022-09-15T08:41:24.403Z,161683.31
2022-09-15T08:43:56.636Z,161610.84
2022-09-15T08:46:28.598Z,161584.00
2022-09-15T08:49:04.293Z,161624.25
2022-09-15T08:51:43.833Z,161712.81
2022-09-15T08:54:22.011Z,161722.25
2022-09-15T08:56:49.879Z,161759.88
2022-09-15T08:59:18.755Z,161810.88
2022-09-15T09:01:52.546Z,161837.75
2022-09-15T09:04:32.254Z,161801.50
2022-09-15T09:07:14.898Z,161751.84
2022-09-15T09:09:50.148Z,161671.25
2022-09-15T09:12:54.708Z,161613.50
2022-09-15T09:15:34.557Z,161533.00
2022-09-15T09:18:20.611Z,161558.53
2022-09-15T09:20:55.823Z,161586.72
2022-09-15T09:23:26.801Z,161617.56
2022-09-15T09:25:56.439Z,161651.13
2022-09-15T09:28:40.106Z,161665.88
2022-09-15T09:31:08.408Z,161743.78
2022-09-15T09:33:47.791Z,161711.50
2022-09-15T09:36:15.794Z,161676.59
2022-09-15T09:38:45.012Z,161669.88
2022-09-15T09:41:18.020Z,161617.56
2022-09-15T09:43:47.671Z,161566.56
2022-09-15T09:46:20.282Z,161484.66
2022-09-15T09:49:12.923Z,161441.72
2022-09-15T09:51:50.789Z,161445.78
2022-09-15T09:54:20.740Z,161538.38
2022-09-15T09:56:53.301Z,161539.72
2022-09-15T09:59:35.210Z,161490.09
2022-09-15T10:02:11.581Z,161469.91
2022-09-15T10:04:44.252Z,161464.53
2022-09-15T10:07:12.315Z,161476.59
2022-09-15T10:09:41.070Z,161439.06
2022-09-15T10:12:19.360Z,161416.28
2022-09-15T10:14:52.638Z,161397.47
2022-09-15T10:17:22.963Z,161397.47
2022-09-15T10:19:54.639Z,161412.22
2022-09-15T10:22:23.951Z,161440.41
2022-09-15T10:24:51.778Z,161469.91
2022-09-15T10:27:34.153Z,161463.19
2022-09-15T10:30:21.135Z,161498.13
2022-09-15T10:32:48.749Z,161512.88
2022-09-15T10:35:18.919Z,161533.00
2022-09-15T10:38:20.260Z,161523.63
2022-09-15T10:41:09.724Z,161533.00
2022-09-15T10:43:37.165Z,161547.78
2022-09-15T10:46:29.168Z,161578.66
2022-09-15T10:49:18.502Z,161598.75
2022-09-15T10:52:11.383Z,161624.25
2022-09-15T10:55:22.013Z,161608.19
2022-09-15T10:58:29.581Z,161589.38
2022-09-15T11:01:15.629Z,161589.38
2022-09-15T11:03:52.026Z,161575.94
2022-09-15T11:06:26.000Z,161578.66
2022-09-15T11:09:09.005Z,161585.31
2022-09-15T11:12:03.038Z,161561.19
2022-09-15T11:14:39.826Z,161566.56
2022-09-15T11:17:44.898Z,161537.06
2022-09-15T11:20:40.297Z,161524.97
2022-09-15T11:23:13.889Z,161561.19
2022-09-15T11:25:44.840Z,161542.38
2022-09-15T11:28:23.102Z,161515.59
2022-09-15T11:31:00.870Z,161504.84
2022-09-15T11:33:46.997Z,161506.16
2022-09-15T11:36:21.003Z,161581.34
2022-09-15T11:38:59.815Z,161624.25
2022-09-15T11:41:41.977Z,161683.31
2022-09-15T11:44:16.759Z,161681.97
2022-09-15T11:47:14.973Z,161622.94
2022-09-15T11:49:49.261Z,161625.59
2022-09-15T11:52:41.517Z,161660.50
2022-09-15T11:55:39.497Z,161657.84
2022-09-15T11:58:32.454Z,161647.06
2022-09-15T12:01:04.071Z,161657.84
2022-09-15T12:03:38.011Z,161625.59
2022-09-15T12:06:14.876Z,161688.69
2022-09-15T12:08:44.489Z,161738.41
2022-09-15T12:11:17.780Z,161706.16
2022-09-15T12:13:45.899Z,161588.03
2022-09-15T12:16:14.308Z,161557.19
2022-09-15T12:18:52.560Z,161562.53
2022-09-15T12:21:38.949Z,161551.81
2022-09-15T12:24:34.080Z,161491.41
2022-09-15T12:27:02.491Z,161504.84
2022-09-15T12:29:41.213Z,161520.91
2022-09-15T12:32:33.393Z,161514.22
2022-09-15T12:35:19.665Z,161515.59
2022-09-15T12:37:49.300Z,161522.31
2022-09-15T12:40:39.750Z,161520.91
2022-09-15T12:43:13.601Z,161523.63
2022-09-15T12:45:43.039Z,161504.84
2022-09-15T12:48:27.463Z,161496.78
2022-09-15T12:51:00.300Z,161437.72
2022-09-15T12:56:08.323Z,161371.97
2022-09-15T12:58:40.711Z,161338.47
2022-09-15T13:01:26.755Z,161359.94
2022-09-15T13:04:00.760Z,161384.06
2022-09-15T13:06:35.359Z,161425.66
2022-09-15T13:09:05.888Z,161440.41
2022-09-15T13:11:53.792Z,161459.19
2022-09-15T13:14:33.934Z,161496.78
2022-09-15T13:17:07.666Z,161457.81
2022-09-15T13:19:46.121Z,161447.09
2022-09-15T13:22:35.020Z,161443.06
2022-09-15T13:25:11.389Z,161421.59
2022-09-15T13:27:51.966Z,161378.66
2022-09-15T13:30:25.467Z,161338.47
2022-09-15T13:33:15.876Z,161346.50
2022-09-15T13:35:52.620Z,161319.69
2022-09-15T13:38:36.180Z,161315.63
2022-09-15T13:41:27.561Z,161290.19
2022-09-15T13:44:21.250Z,161270.06
2022-09-15T13:47:15.537Z,161236.53
2022-09-15T13:50:20.639Z,161241.91
2022-09-15T13:53:25.790Z,161270.06
2022-09-15T13:55:57.156Z,161299.56
2022-09-15T14:01:14.476Z,161343.78
2022-09-15T14:03:42.306Z,161384.06
2022-09-15T14:06:16.258Z,161394.81
2022-09-15T14:08:46.270Z,161371.97
2022-09-15T14:11:15.371Z,161361.25
2022-09-15T14:13:47.898Z,161335.75
2022-09-15T14:16:26.530Z,161359.94
2022-09-15T14:18:56.060Z,161382.72
2022-09-15T14:21:30.543Z,161390.75
2022-09-15T14:24:04.609Z,161418.94
2022-09-15T14:26:34.682Z,161429.69
2022-09-15T14:29:04.892Z,161487.41
2022-09-15T14:31:33.625Z,161490.09
2022-09-15T14:34:05.903Z,161451.16
2022-09-15T14:36:34.762Z,161464.53
2022-09-15T14:39:21.994Z,161416.28
2022-09-15T14:41:50.833Z,161371.97
2022-09-15T14:47:19.442Z,161361.25
2022-09-15T14:49:47.238Z,161327.72
2022-09-15T14:52:25.091Z,161333.09
2022-09-15T14:54:56.768Z,161318.34
2022-09-15T14:57:30.186Z,161304.94
2022-09-15T15:00:07.172Z,161294.19
2022-09-15T15:02:57.131Z,161267.41
2022-09-15T15:05:28.674Z,161287.47
2022-09-15T15:07:57.116Z,161291.50
2022-09-15T15:10:27.996Z,161253.97
2022-09-15T15:13:02.357Z,161284.81
2022-09-15T15:15:31.750Z,161282.16
2022-09-15T15:17:59.675Z,161270.06
2022-09-15T15:20:30.496Z,161260.69
2022-09-15T15:23:11.653Z,161228.44
2022-09-15T15:25:39.608Z,161161.41
2022-09-15T15:28:07.704Z,161142.63
2022-09-15T15:30:43.227Z,161152.00
2022-09-15T15:33:29.732Z,161156.03
2022-09-15T15:36:15.574Z,161153.34
2022-09-15T15:38:48.064Z,161103.72
2022-09-15T15:41:27.030Z,161141.31
2022-09-15T15:44:07.831Z,161125.22
2022-09-15T15:46:54.964Z,161127.88
2022-09-15T15:49:27.585Z,161122.53
2022-09-15T15:51:55.603Z,161110.44
2022-09-15T15:54:23.795Z,161094.38
2022-09-15T15:56:52.219Z,161107.78
2022-09-15T15:59:20.331Z,161097.09
2022-09-15T16:01:51.876Z,161086.34
2022-09-15T16:04:19.725Z,161067.56
2022-09-15T16:06:47.966Z,161070.25
2022-09-15T16:09:17.169Z,161075.59
2022-09-15T16:11:47.943Z,161074.25
2022-09-15T16:14:15.670Z,161078.31
2022-09-15T16:16:43.140Z,161071.59
2022-09-15T16:19:11.538Z,161062.22
2022-09-15T16:21:42.692Z,161051.47
2022-09-15T16:24:14.166Z,161027.38
2022-09-15T16:26:42.883Z,161007.28
2022-09-15T16:29:11.384Z,160984.50
2022-09-15T16:31:39.281Z,160985.81
2022-09-15T16:34:09.232Z,160973.75
2022-09-15T16:36:36.869Z,160971.09
2022-09-15T16:39:04.388Z,160957.63
2022-09-15T16:41:38.968Z,160926.78
2022-09-15T16:44:16.963Z,160921.47
2022-09-15T16:46:44.644Z,160901.34
2022-09-15T16:49:12.044Z,160898.66
2022-09-15T16:51:39.376Z,160898.66
2022-09-15T16:54:15.559Z,160887.94
2022-09-15T16:56:43.465Z,160869.19
2022-09-15T16:59:11.421Z,160853.13
2022-09-15T17:01:39.239Z,160837.06
2022-09-15T17:04:13.229Z,160818.28
2022-09-15T17:06:40.837Z,160815.63
2022-09-15T17:09:08.187Z,160800.91
2022-09-15T17:11:35.728Z,160792.88
2022-09-15T17:14:03.449Z,160791.47
2022-09-15T17:16:30.881Z,160791.47
2022-09-15T17:18:58.329Z,160771.38
2022-09-15T17:21:26.244Z,160770.06
2022-09-15T17:23:53.755Z,160748.63
2022-09-15T17:26:24.678Z,160725.88
2022-09-15T17:28:55.639Z,160716.50
2022-09-15T17:31:25.148Z,160704.44
2022-09-15T17:33:53.312Z,160693.75
2022-09-15T17:36:21.616Z,160685.69
2022-09-15T17:38:49.258Z,160669.56
2022-09-15T17:41:21.675Z,160653.50
2022-09-15T17:43:52.259Z,160641.44
2022-09-15T17:46:19.763Z,160630.75
2022-09-15T17:48:47.117Z,160624.06
2022-09-15T17:51:17.449Z,160612.00
2022-09-15T17:53:47.101Z,160603.97
2022-09-15T17:56:14.574Z,160601.28
2022-09-15T17:58:43.388Z,160594.56
2022-09-15T18:01:14.703Z,160583.88
2022-09-15T18:03:44.273Z,160583.88
2022-09-15T18:06:12.319Z,160571.81
2022-09-15T18:08:40.938Z,160555.78
2022-09-15T18:11:08.971Z,160549.06
2022-09-15T18:13:37.487Z,160550.41
2022-09-15T18:16:07.843Z,160533.03
2022-09-15T18:18:35.658Z,160526.31
2022-09-15T18:21:07.987Z,160515.59
2022-09-15T18:23:37.607Z,160519.63
2022-09-15T18:26:05.875Z,160504.91
2022-09-15T18:28:33.382Z,160490.19
2022-09-15T18:31:00.988Z,160494.19
2022-09-15T18:33:29.380Z,160487.50
2022-09-15T18:35:59.067Z,160490.19
2022-09-15T18:38:27.107Z,160488.88
2022-09-15T18:40:56.541Z,160487.50
2022-09-15T18:43:26.808Z,160486.16
2022-09-15T18:46:01.361Z,160499.53
2022-09-15T18:48:32.262Z,160487.50
2022-09-15T18:50:59.889Z,160491.53
2022-09-15T18:53:27.798Z,160498.22
2022-09-15T18:55:55.576Z,160482.16
2022-09-15T18:58:23.855Z,160482.16
2022-09-15T19:00:52.204Z,160488.88
2022-09-15T19:03:19.881Z,160486.16
2022-09-15T19:05:47.204Z,160483.50
2022-09-15T19:08:15.320Z,160472.75
2022-09-15T19:10:44.389Z,160467.41
2022-09-15T19:13:14.334Z,160454.06
2022-09-15T19:15:44.215Z,160447.38
2022-09-15T19:18:12.046Z,160421.91
2022-09-15T19:20:40.439Z,160403.16
2022-09-15T19:23:09.217Z,160415.22
2022-09-15T19:25:37.817Z,160415.22
2022-09-15T19:28:05.349Z,160395.16
2022-09-15T19:30:33.045Z,160400.50
2022-09-15T19:33:02.701Z,160393.81
2022-09-15T19:35:30.278Z,160364.34
2022-09-15T19:37:57.767Z,160377.72
2022-09-15T19:40:25.673Z,160380.38
2022-09-15T19:42:53.180Z,160380.38
2022-09-15T19:45:20.627Z,160363.00
2022-09-15T19:47:48.680Z,160373.69
2022-09-15T19:50:16.256Z,160348.28
2022-09-15T19:52:44.457Z,160379.06
2022-09-15T19:55:13.266Z,160369.69
2022-09-15T19:57:42.190Z,160367.00
2022-09-15T20:00:11.972Z,160372.34
2022-09-15T20:02:40.470Z,160345.59
2022-09-15T20:07:54.233Z,160355.00
2022-09-15T20:10:21.806Z,160352.28
2022-09-15T20:12:49.427Z,160340.22
2022-09-15T20:15:17.243Z,160346.91
2022-09-15T20:17:44.640Z,160333.59
2022-09-15T20:20:12.277Z,160322.84
2022-09-15T20:22:40.124Z,160314.84
2022-09-15T20:25:07.676Z,160288.06
2022-09-15T20:27:35.172Z,160297.41
2022-09-15T20:30:03.014Z,160281.38
2022-09-15T20:32:33.332Z,160258.63
2022-09-15T20:35:01.343Z,160257.31
2022-09-15T20:37:29.082Z,160254.59
2022-09-15T20:39:57.548Z,160239.91
2022-09-15T20:42:25.003Z,160215.84
2022-09-15T20:44:52.922Z,160213.13
2022-09-15T20:47:20.270Z,160213.13
2022-09-15T20:49:47.740Z,160201.13
2022-09-15T20:52:16.243Z,160177.03
2022-09-15T20:54:44.324Z,160165.03
2022-09-15T20:57:12.137Z,160158.34
2022-09-15T20:59:40.281Z,160127.53
2022-09-15T21:02:07.844Z,160114.16
2022-09-15T21:04:35.520Z,160106.16
2022-09-15T21:07:03.527Z,160095.47
2022-09-15T21:09:30.885Z,160074.09
2022-09-15T21:11:58.505Z,160068.72
2022-09-15T21:14:26.348Z,160063.38
2022-09-15T21:16:54.067Z,160052.69
2022-09-15T21:19:21.583Z,160016.56
2022-09-15T21:21:49.816Z,160019.22
2022-09-15T21:24:17.325Z,160007.16
2022-09-15T21:27:03.579Z,159992.47
2022-09-15T21:29:31.714Z,159967.09
2022-09-15T21:31:59.211Z,159963.06
2022-09-15T21:34:27.277Z,159964.38
2022-09-15T21:36:55.493Z,159935.00
2022-09-15T21:39:23.817Z,159931.00
2022-09-15T21:41:51.307Z,159926.97
2022-09-15T21:44:19.498Z,159920.28
2022-09-15T21:46:48.209Z,159906.91
2022-09-15T21:49:18.266Z,159893.53
2022-09-15T21:51:45.856Z,159865.47
2022-09-15T21:54:14.152Z,159845.44
2022-09-15T21:56:41.967Z,159812.06
2022-09-15T21:59:11.028Z,159794.66
2022-09-15T22:01:39.897Z,159774.59
2022-09-15T22:04:09.002Z,159745.22
2022-09-15T22:06:40.659Z,159717.16
2022-09-15T22:09:10.647Z,159678.41
2022-09-15T22:11:38.560Z,159659.69
2022-09-15T22:14:09.812Z,159659.69
2022-09-15T22:16:38.936Z,159637.00
2022-09-15T22:19:08.258Z,159576.88
2022-09-15T22:21:37.259Z,159587.56
2022-09-15T22:24:07.183Z,159586.25
2022-09-15T22:26:37.827Z,159567.53
2022-09-15T22:29:06.138Z,159558.22
2022-09-15T22:31:34.126Z,159538.16
2022-09-15T22:34:02.040Z,159524.81
2022-09-15T22:36:31.373Z,159499.41
2022-09-15T22:39:05.055Z,159484.75
2022-09-15T22:41:37.161Z,159454.06
2022-09-15T22:44:05.917Z,159430.00
2022-09-15T22:46:34.102Z,159389.97
2022-09-15T22:49:01.998Z,159380.59
2022-09-15T22:51:29.969Z,159380.59
2022-09-15T22:53:57.861Z,159336.56
2022-09-15T22:56:26.622Z,159352.56
2022-09-15T22:58:55.849Z,159357.94
2022-09-15T23:01:28.629Z,159363.28
2022-09-15T23:03:58.565Z,159365.94
2022-09-15T23:06:28.850Z,159365.94
2022-09-15T23:08:59.944Z,159379.28
2022-09-15T23:11:28.807Z,159380.59
2022-09-15T23:13:56.631Z,159384.63
2022-09-15T23:16:25.079Z,159392.63
2022-09-15T23:18:54.370Z,159379.28
2022-09-15T23:21:22.223Z,159405.97
2022-09-15T23:23:50.133Z,159416.69
2022-09-15T23:26:20.282Z,159419.34
2022-09-15T23:28:49.324Z,159426.00
2022-09-15T23:31:17.332Z,159428.66
2022-09-15T23:33:45.653Z,159432.69
2022-09-15T23:36:15.502Z,159427.34
2022-09-15T23:38:44.556Z,159430.00
2022-09-15T23:41:13.559Z,159408.63
2022-09-15T23:43:41.284Z,159412.66
2022-09-15T23:46:09.236Z,159419.34
2022-09-15T23:48:37.335Z,159423.38
2022-09-15T23:51:05.650Z,159432.69
2022-09-15T23:53:33.214Z,159436.66
2022-09-15T23:56:01.103Z,159439.38
2022-09-15T23:58:28.549Z,159455.38
